sensor_id;sensor_type;location;lat;lon;timestamp;temperature;humidity
27376;DHT22;14844;51.302;6.354;2023-02-28T00:01:11;-0.90;99.90
27376;DHT22;14844;51.302;6.354;2023-02-28T00:03:37;-0.90;99.90
27376;DHT22;14844;51.302;6.354;2023-02-28T00:06:04;-0.90;99.90
27376;DHT22;14844;51.302;6.354;2023-02-28T00:08:29;-0.90;99.90
27376;DHT22;14844;51.302;6.354;2023-02-28T00:10:55;-0.80;99.90
27376;DHT22;14844;51.302;6.354;2023-02-28T00:13:21;-0.80;99.90
27376;DHT22;14844;51.302;6.354;2023-02-28T00:15:46;-0.80;99.90
27376;DHT22;14844;51.302;6.354;2023-02-28T00:18:12;-0.90;99.90
27376;DHT22;14844;51.302;6.354;2023-02-28T00:20:38;-1.00;99.90
27376;DHT22;14844;51.302;6.354;2023-02-28T00:23:04;-1.10;99.90
27376;DHT22;14844;51.302;6.354;2023-02-28T00:25:29;-1.20;99.90
27376;DHT22;14844;51.302;6.354;2023-02-28T00:27:55;-1.30;99.90
27376;DHT22;14844;51.302;6.354;2023-02-28T00:30:22;-1.30;99.90
27376;DHT22;14844;51.302;6.354;2023-02-28T00:32:49;-1.30;99.90
27376;DHT22;14844;51.302;6.354;2023-02-28T00:35:15;-1.40;99.90
27376;DHT22;14844;51.302;6.354;2023-02-28T00:37:41;-1.40;99.90
27376;DHT22;14844;51.302;6.354;2023-02-28T00:40:07;-1.40;99.90
27376;DHT22;14844;51.302;6.354;2023-02-28T00:42:35;-1.50;99.90
27376;DHT22;14844;51.302;6.354;2023-02-28T00:45:00;-1.50;99.90
27376;DHT22;14844;51.302;6.354;2023-02-28T00:47:26;-1.50;99.90
27376;DHT22;14844;51.302;6.354;2023-02-28T00:49:52;-1.50;99.90
27376;DHT22;14844;51.302;6.354;2023-02-28T00:52:17;-1.60;99.90
27376;DHT22;14844;51.302;6.354;2023-02-28T00:54:43;-1.60;99.90
27376;DHT22;14844;51.302;6.354;2023-02-28T00:57:08;-1.70;99.90
27376;DHT22;14844;51.302;6.354;2023-02-28T00:59:34;-1.80;99.90
27376;DHT22;14844;51.302;6.354;2023-02-28T01:02:00;-1.80;99.90
27376;DHT22;14844;51.302;6.354;2023-02-28T01:04:25;-1.70;99.90
27376;DHT22;14844;51.302;6.354;2023-02-28T01:06:51;-1.70;99.90
27376;DHT22;14844;51.302;6.354;2023-02-28T01:09:16;-1.70;99.90
27376;DHT22;14844;51.302;6.354;2023-02-28T01:11:42;-1.70;99.90
27376;DHT22;14844;51.302;6.354;2023-02-28T01:14:12;-1.50;99.90
27376;DHT22;14844;51.302;6.354;2023-02-28T01:16:38;-1.40;99.90
27376;DHT22;14844;51.302;6.354;2023-02-28T01:19:03;-1.30;99.90
27376;DHT22;14844;51.302;6.354;2023-02-28T01:21:29;-1.20;99.90
27376;DHT22;14844;51.302;6.354;2023-02-28T01:23:56;-1.20;99.90
27376;DHT22;14844;51.302;6.354;2023-02-28T01:26:23;-1.20;99.90
27376;DHT22;14844;51.302;6.354;2023-02-28T01:28:50;-1.20;99.90
27376;DHT22;14844;51.302;6.354;2023-02-28T01:31:16;-1.10;99.90
27376;DHT22;14844;51.302;6.354;2023-02-28T01:33:43;-1.20;99.90
27376;DHT22;14844;51.302;6.354;2023-02-28T01:36:14;-1.20;99.90
27376;DHT22;14844;51.302;6.354;2023-02-28T01:38:40;-1.20;99.90
27376;DHT22;14844;51.302;6.354;2023-02-28T01:41:07;-1.40;99.90
27376;DHT22;14844;51.302;6.354;2023-02-28T01:46:08;-1.50;99.90
27376;DHT22;14844;51.302;6.354;2023-02-28T01:48:38;-1.50;99.90
27376;DHT22;14844;51.302;6.354;2023-02-28T01:51:15;-1.50;99.90
27376;DHT22;14844;51.302;6.354;2023-02-28T01:53:45;-1.50;99.90
27376;DHT22;14844;51.302;6.354;2023-02-28T01:56:13;-1.50;99.90
27376;DHT22;14844;51.302;6.354;2023-02-28T01:58:46;-1.30;99.90
27376;DHT22;14844;51.302;6.354;2023-02-28T02:01:12;-1.30;99.90
27376;DHT22;14844;51.302;6.354;2023-02-28T02:03:57;-1.30;99.90
27376;DHT22;14844;51.302;6.354;2023-02-28T02:06:25;-1.40;99.90
27376;DHT22;14844;51.302;6.354;2023-02-28T02:08:52;-1.50;99.90
27376;DHT22;14844;51.302;6.354;2023-02-28T02:11:20;-1.60;99.90
27376;DHT22;14844;51.302;6.354;2023-02-28T02:14:06;-1.60;99.90
27376;DHT22;14844;51.302;6.354;2023-02-28T02:20:06;-1.80;99.90
27376;DHT22;14844;51.302;6.354;2023-02-28T02:31:37;-1.90;99.90
27376;DHT22;14844;51.302;6.354;2023-02-28T02:39:44;-1.60;99.90
27376;DHT22;14844;51.302;6.354;2023-02-28T02:42:20;-1.40;99.90
27376;DHT22;14844;51.302;6.354;2023-02-28T02:45:07;-1.50;99.90
27376;DHT22;14844;51.302;6.354;2023-02-28T02:47:35;-1.60;99.90
27376;DHT22;14844;51.302;6.354;2023-02-28T02:50:05;-1.50;99.90
27376;DHT22;14844;51.302;6.354;2023-02-28T02:52:43;-1.50;99.90
27376;DHT22;14844;51.302;6.354;2023-02-28T02:55:12;-1.50;99.90
27376;DHT22;14844;51.302;6.354;2023-02-28T02:57:47;-1.50;99.90
27376;DHT22;14844;51.302;6.354;2023-02-28T03:00:16;-1.50;99.90
27376;DHT22;14844;51.302;6.354;2023-02-28T03:02:44;-1.50;99.90
27376;DHT22;14844;51.302;6.354;2023-02-28T03:05:34;-1.50;99.90
27376;DHT22;14844;51.302;6.354;2023-02-28T03:08:04;-1.50;99.90
27376;DHT22;14844;51.302;6.354;2023-02-28T03:10:40;-1.60;99.90
27376;DHT22;14844;51.302;6.354;2023-02-28T03:30:29;-1.70;99.90
27376;DHT22;14844;51.302;6.354;2023-02-28T03:35:38;-1.70;99.90
27376;DHT22;14844;51.302;6.354;2023-02-28T03:38:19;-1.70;99.90
27376;DHT22;14844;51.302;6.354;2023-02-28T03:40:58;-1.80;99.90
27376;DHT22;14844;51.302;6.354;2023-02-28T03:43:29;-1.90;99.90
27376;DHT22;14844;51.302;6.354;2023-02-28T03:45:59;-1.90;99.90
27376;DHT22;14844;51.302;6.354;2023-02-28T03:48:39;-2.00;99.90
27376;DHT22;14844;51.302;6.354;2023-02-28T03:51:07;-1.90;99.90
27376;DHT22;14844;51.302;6.354;2023-02-28T03:53:39;-2.00;99.90
27376;DHT22;14844;51.302;6.354;2023-02-28T03:56:16;-2.00;99.90
27376;DHT22;14844;51.302;6.354;2023-02-28T03:58:54;-2.00;99.90
27376;DHT22;14844;51.302;6.354;2023-02-28T04:01:31;-2.00;99.90
27376;DHT22;14844;51.302;6.354;2023-02-28T04:04:00;-2.00;99.90
27376;DHT22;14844;51.302;6.354;2023-02-28T04:06:26;-2.00;99.90
27376;DHT22;14844;51.302;6.354;2023-02-28T04:08:52;-2.00;99.90
27376;DHT22;14844;51.302;6.354;2023-02-28T04:11:27;-2.00;99.90
27376;DHT22;14844;51.302;6.354;2023-02-28T04:13:55;-2.00;99.90
27376;DHT22;14844;51.302;6.354;2023-02-28T04:16:21;-1.90;99.90
27376;DHT22;14844;51.302;6.354;2023-02-28T04:18:46;-1.90;99.90
27376;DHT22;14844;51.302;6.354;2023-02-28T04:21:12;-1.80;99.90
27376;DHT22;14844;51.302;6.354;2023-02-28T04:23:38;-1.80;99.90
27376;DHT22;14844;51.302;6.354;2023-02-28T04:26:04;-1.90;99.90
27376;DHT22;14844;51.302;6.354;2023-02-28T04:28:30;-2.00;99.90
27376;DHT22;14844;51.302;6.354;2023-02-28T04:30:57;-1.90;99.90
27376;DHT22;14844;51.302;6.354;2023-02-28T04:33:23;-1.90;99.90
27376;DHT22;14844;51.302;6.354;2023-02-28T04:35:58;-1.90;99.90
27376;DHT22;14844;51.302;6.354;2023-02-28T04:38:24;-2.00;99.90
27376;DHT22;14844;51.302;6.354;2023-02-28T04:40:49;-2.00;99.90
27376;DHT22;14844;51.302;6.354;2023-02-28T04:43:15;-1.90;99.90
27376;DHT22;14844;51.302;6.354;2023-02-28T04:45:40;-1.90;99.90
27376;DHT22;14844;51.302;6.354;2023-02-28T04:48:06;-1.80;99.90
27376;DHT22;14844;51.302;6.354;2023-02-28T04:50:31;-1.70;99.90
27376;DHT22;14844;51.302;6.354;2023-02-28T04:52:57;-1.60;99.90
27376;DHT22;14844;51.302;6.354;2023-02-28T04:55:22;-1.60;99.90
27376;DHT22;14844;51.302;6.354;2023-02-28T04:57:48;-1.50;99.90
27376;DHT22;14844;51.302;6.354;2023-02-28T05:00:13;-1.50;99.90
27376;DHT22;14844;51.302;6.354;2023-02-28T05:02:42;-1.50;99.90
27376;DHT22;14844;51.302;6.354;2023-02-28T05:05:08;-1.50;99.90
27376;DHT22;14844;51.302;6.354;2023-02-28T05:07:33;-1.50;99.90
27376;DHT22;14844;51.302;6.354;2023-02-28T05:09:59;-1.50;99.90
27376;DHT22;14844;51.302;6.354;2023-02-28T05:12:24;-1.50;99.90
27376;DHT22;14844;51.302;6.354;2023-02-28T05:14:50;-1.50;99.90
27376;DHT22;14844;51.302;6.354;2023-02-28T05:17:15;-1.70;99.90
27376;DHT22;14844;51.302;6.354;2023-02-28T05:19:42;-1.70;99.90
27376;DHT22;14844;51.302;6.354;2023-02-28T05:22:13;-1.70;99.90
27376;DHT22;14844;51.302;6.354;2023-02-28T05:24:39;-1.80;99.90
27376;DHT22;14844;51.302;6.354;2023-02-28T05:27:05;-1.80;99.90
27376;DHT22;14844;51.302;6.354;2023-02-28T05:29:30;-1.70;99.90
27376;DHT22;14844;51.302;6.354;2023-02-28T05:31:56;-1.70;99.90
27376;DHT22;14844;51.302;6.354;2023-02-28T05:34:21;-1.70;99.90
27376;DHT22;14844;51.302;6.354;2023-02-28T05:36:47;-1.70;99.90
27376;DHT22;14844;51.302;6.354;2023-02-28T05:39:12;-1.70;99.90
27376;DHT22;14844;51.302;6.354;2023-02-28T05:41:42;-1.70;99.90
27376;DHT22;14844;51.302;6.354;2023-02-28T05:44:08;-1.70;99.90
27376;DHT22;14844;51.302;6.354;2023-02-28T05:46:34;-1.70;99.90
27376;DHT22;14844;51.302;6.354;2023-02-28T05:49:00;-1.80;99.90
27376;DHT22;14844;51.302;6.354;2023-02-28T05:51:26;-1.80;99.90
27376;DHT22;14844;51.302;6.354;2023-02-28T05:53:53;-1.80;99.90
27376;DHT22;14844;51.302;6.354;2023-02-28T05:56:19;-1.80;99.90
27376;DHT22;14844;51.302;6.354;2023-02-28T05:58:44;-1.80;99.90
27376;DHT22;14844;51.302;6.354;2023-02-28T06:01:33;-1.70;99.90
27376;DHT22;14844;51.302;6.354;2023-02-28T06:04:04;-1.70;99.90
27376;DHT22;14844;51.302;6.354;2023-02-28T06:06:30;-1.60;99.90
27376;DHT22;14844;51.302;6.354;2023-02-28T06:08:56;-1.70;99.90
27376;DHT22;14844;51.302;6.354;2023-02-28T06:11:22;-1.70;99.90
27376;DHT22;14844;51.302;6.354;2023-02-28T06:13:54;-1.70;99.90
27376;DHT22;14844;51.302;6.354;2023-02-28T06:16:20;-1.80;99.90
27376;DHT22;14844;51.302;6.354;2023-02-28T06:18:45;-1.90;99.90
27376;DHT22;14844;51.302;6.354;2023-02-28T06:21:12;-1.90;99.90
27376;DHT22;14844;51.302;6.354;2023-02-28T06:23:38;-1.90;99.90
27376;DHT22;14844;51.302;6.354;2023-02-28T06:26:04;-1.90;99.90
27376;DHT22;14844;51.302;6.354;2023-02-28T06:28:29;-1.80;99.90
27376;DHT22;14844;51.302;6.354;2023-02-28T06:30:55;-1.90;99.90
27376;DHT22;14844;51.302;6.354;2023-02-28T06:33:20;-1.80;99.90
27376;DHT22;14844;51.302;6.354;2023-02-28T06:35:47;-1.80;99.90
27376;DHT22;14844;51.302;6.354;2023-02-28T06:38:15;-1.80;99.90
27376;DHT22;14844;51.302;6.354;2023-02-28T06:40:41;-1.70;99.90
27376;DHT22;14844;51.302;6.354;2023-02-28T06:43:06;-1.70;99.90
27376;DHT22;14844;51.302;6.354;2023-02-28T06:45:32;-1.60;99.90
27376;DHT22;14844;51.302;6.354;2023-02-28T06:47:58;-1.50;99.90
27376;DHT22;14844;51.302;6.354;2023-02-28T06:50:25;-1.40;99.90
27376;DHT22;14844;51.302;6.354;2023-02-28T06:52:52;-1.30;99.90
27376;DHT22;14844;51.302;6.354;2023-02-28T06:55:20;-1.20;99.90
27376;DHT22;14844;51.302;6.354;2023-02-28T06:57:46;-1.20;99.90
27376;DHT22;14844;51.302;6.354;2023-02-28T07:00:12;-1.10;99.90
27376;DHT22;14844;51.302;6.354;2023-02-28T07:02:38;-1.00;99.90
27376;DHT22;14844;51.302;6.354;2023-02-28T07:05:05;-0.90;99.90
27376;DHT22;14844;51.302;6.354;2023-02-28T07:07:31;-0.90;99.90
27376;DHT22;14844;51.302;6.354;2023-02-28T07:09:57;-0.80;99.90
27376;DHT22;14844;51.302;6.354;2023-02-28T07:12:23;-0.70;99.90
27376;DHT22;14844;51.302;6.354;2023-02-28T07:14:48;-0.70;99.90
27376;DHT22;14844;51.302;6.354;2023-02-28T07:17:14;-0.60;99.90
27376;DHT22;14844;51.302;6.354;2023-02-28T07:19:39;-0.50;99.90
27376;DHT22;14844;51.302;6.354;2023-02-28T07:22:06;-0.40;99.90
27376;DHT22;14844;51.302;6.354;2023-02-28T07:24:32;-0.30;99.90
27376;DHT22;14844;51.302;6.354;2023-02-28T07:26:57;-0.10;99.90
27376;DHT22;14844;51.302;6.354;2023-02-28T07:29:23;-0.10;99.90
27376;DHT22;14844;51.302;6.354;2023-02-28T07:31:48;0.00;99.90
27376;DHT22;14844;51.302;6.354;2023-02-28T07:34:16;0.20;99.90
27376;DHT22;14844;51.302;6.354;2023-02-28T07:36:41;0.30;99.90
27376;DHT22;14844;51.302;6.354;2023-02-28T07:39:07;0.40;99.90
27376;DHT22;14844;51.302;6.354;2023-02-28T07:41:35;0.40;99.90
27376;DHT22;14844;51.302;6.354;2023-02-28T07:44:04;0.50;99.90
27376;DHT22;14844;51.302;6.354;2023-02-28T07:46:30;0.70;99.90
27376;DHT22;14844;51.302;6.354;2023-02-28T07:49:00;0.70;99.90
27376;DHT22;14844;51.302;6.354;2023-02-28T07:51:28;0.90;99.90
27376;DHT22;14844;51.302;6.354;2023-02-28T07:53:54;0.90;99.90
27376;DHT22;14844;51.302;6.354;2023-02-28T07:56:20;1.00;99.90
27376;DHT22;14844;51.302;6.354;2023-02-28T07:58:45;1.10;99.90
27376;DHT22;14844;51.302;6.354;2023-02-28T08:01:11;1.20;99.90
27376;DHT22;14844;51.302;6.354;2023-02-28T08:03:38;1.30;99.90
27376;DHT22;14844;51.302;6.354;2023-02-28T08:06:05;1.40;99.90
27376;DHT22;14844;51.302;6.354;2023-02-28T08:08:31;1.50;99.90
27376;DHT22;14844;51.302;6.354;2023-02-28T08:11:01;1.60;99.90
27376;DHT22;14844;51.302;6.354;2023-02-28T08:13:28;1.70;99.90
27376;DHT22;14844;51.302;6.354;2023-02-28T08:15:54;1.70;99.90
27376;DHT22;14844;51.302;6.354;2023-02-28T08:18:21;1.80;99.90
27376;DHT22;14844;51.302;6.354;2023-02-28T08:20:47;1.90;99.90
27376;DHT22;14844;51.302;6.354;2023-02-28T08:23:12;2.00;99.90
27376;DHT22;14844;51.302;6.354;2023-02-28T08:25:38;2.10;99.90
27376;DHT22;14844;51.302;6.354;2023-02-28T08:28:04;2.10;99.90
27376;DHT22;14844;51.302;6.354;2023-02-28T08:30:29;2.20;99.90
27376;DHT22;14844;51.302;6.354;2023-02-28T08:32:55;2.20;99.90
27376;DHT22;14844;51.302;6.354;2023-02-28T08:35:21;2.40;99.90
27376;DHT22;14844;51.302;6.354;2023-02-28T08:37:48;2.50;99.90
27376;DHT22;14844;51.302;6.354;2023-02-28T08:40:14;2.50;99.90
27376;DHT22;14844;51.302;6.354;2023-02-28T08:42:49;2.70;99.90
27376;DHT22;14844;51.302;6.354;2023-02-28T08:45:15;2.70;99.90
27376;DHT22;14844;51.302;6.354;2023-02-28T08:47:41;2.80;99.90
27376;DHT22;14844;51.302;6.354;2023-02-28T08:50:07;2.90;99.90
27376;DHT22;14844;51.302;6.354;2023-02-28T08:52:33;3.10;99.90
27376;DHT22;14844;51.302;6.354;2023-02-28T08:54:58;3.10;99.90
27376;DHT22;14844;51.302;6.354;2023-02-28T08:57:24;3.20;99.90
27376;DHT22;14844;51.302;6.354;2023-02-28T08:59:51;3.40;99.90
27376;DHT22;14844;51.302;6.354;2023-02-28T09:02:17;3.40;99.90
27376;DHT22;14844;51.302;6.354;2023-02-28T09:04:43;3.50;99.90
27376;DHT22;14844;51.302;6.354;2023-02-28T09:07:11;3.50;99.90
27376;DHT22;14844;51.302;6.354;2023-02-28T09:09:36;3.70;99.90
27376;DHT22;14844;51.302;6.354;2023-02-28T09:12:02;3.80;99.90
27376;DHT22;14844;51.302;6.354;2023-02-28T09:14:27;3.90;99.90
27376;DHT22;14844;51.302;6.354;2023-02-28T09:16:53;4.00;99.60
27376;DHT22;14844;51.302;6.354;2023-02-28T09:19:19;4.00;98.60
27376;DHT22;14844;51.302;6.354;2023-02-28T09:21:44;4.10;97.50
27376;DHT22;14844;51.302;6.354;2023-02-28T09:24:10;4.10;97.40
27376;DHT22;14844;51.302;6.354;2023-02-28T09:26:38;4.10;97.90
27376;DHT22;14844;51.302;6.354;2023-02-28T09:29:04;4.10;96.40
27376;DHT22;14844;51.302;6.354;2023-02-28T09:31:30;4.10;95.90
27376;DHT22;14844;51.302;6.354;2023-02-28T09:33:56;4.10;96.60
27376;DHT22;14844;51.302;6.354;2023-02-28T09:36:23;4.20;96.00
27376;DHT22;14844;51.302;6.354;2023-02-28T09:38:49;4.30;95.40
27376;DHT22;14844;51.302;6.354;2023-02-28T09:41:25;4.40;96.10
27376;DHT22;14844;51.302;6.354;2023-02-28T09:43:55;4.50;95.60
27376;DHT22;14844;51.302;6.354;2023-02-28T09:49:02;4.40;95.80
27376;DHT22;14844;51.302;6.354;2023-02-28T09:51:36;4.50;95.90
27376;DHT22;14844;51.302;6.354;2023-02-28T09:54:05;4.40;94.90
27376;DHT22;14844;51.302;6.354;2023-02-28T09:56:36;4.30;94.90
27376;DHT22;14844;51.302;6.354;2023-02-28T09:59:18;4.50;96.00
27376;DHT22;14844;51.302;6.354;2023-02-28T10:02:19;4.50;95.00
27376;DHT22;14844;51.302;6.354;2023-02-28T10:04:58;4.60;94.50
27376;DHT22;14844;51.302;6.354;2023-02-28T10:07:51;4.60;94.50
27376;DHT22;14844;51.302;6.354;2023-02-28T10:10:40;4.70;94.70
27376;DHT22;14844;51.302;6.354;2023-02-28T10:13:36;4.80;94.30
27376;DHT22;14844;51.302;6.354;2023-02-28T10:16:15;5.00;94.00
27376;DHT22;14844;51.302;6.354;2023-02-28T10:18:48;5.20;95.00
27376;DHT22;14844;51.302;6.354;2023-02-28T10:21:24;5.20;93.70
27376;DHT22;14844;51.302;6.354;2023-02-28T10:23:56;5.20;94.20
27376;DHT22;14844;51.302;6.354;2023-02-28T10:26:26;5.20;93.80
27376;DHT22;14844;51.302;6.354;2023-02-28T10:28:54;5.50;94.20
27376;DHT22;14844;51.302;6.354;2023-02-28T10:31:20;5.30;93.50
27376;DHT22;14844;51.302;6.354;2023-02-28T10:33:46;5.10;93.90
27376;DHT22;14844;51.302;6.354;2023-02-28T10:36:15;4.70;94.10
27376;DHT22;14844;51.302;6.354;2023-02-28T10:38:43;4.30;93.90
27376;DHT22;14844;51.302;6.354;2023-02-28T10:41:11;4.10;95.50
27376;DHT22;14844;51.302;6.354;2023-02-28T10:43:39;4.00;95.60
27376;DHT22;14844;51.302;6.354;2023-02-28T10:48:35;4.90;95.00
27376;DHT22;14844;51.302;6.354;2023-02-28T10:51:02;5.30;93.70
27376;DHT22;14844;51.302;6.354;2023-02-28T10:53:47;5.70;92.80
27376;DHT22;14844;51.302;6.354;2023-02-28T10:56:19;6.00;93.00
27376;DHT22;14844;51.302;6.354;2023-02-28T11:07:14;6.50;92.40
27376;DHT22;14844;51.302;6.354;2023-02-28T11:09:41;6.40;92.00
27376;DHT22;14844;51.302;6.354;2023-02-28T11:12:34;6.40;92.10
27376;DHT22;14844;51.302;6.354;2023-02-28T11:15:05;6.60;92.50
27376;DHT22;14844;51.302;6.354;2023-02-28T11:17:32;6.80;91.90
27376;DHT22;14844;51.302;6.354;2023-02-28T11:20:04;6.80;91.20
27376;DHT22;14844;51.302;6.354;2023-02-28T11:22:36;6.50;91.10
27376;DHT22;14844;51.302;6.354;2023-02-28T11:25:09;6.30;91.20
27376;DHT22;14844;51.302;6.354;2023-02-28T11:27:46;6.00;90.00
27376;DHT22;14844;51.302;6.354;2023-02-28T11:32:51;5.70;91.20
27376;DHT22;14844;51.302;6.354;2023-02-28T11:35:23;6.00;92.00
27376;DHT22;14844;51.302;6.354;2023-02-28T11:37:49;6.10;91.50
27376;DHT22;14844;51.302;6.354;2023-02-28T11:40:39;6.30;91.10
27376;DHT22;14844;51.302;6.354;2023-02-28T11:46:23;6.30;91.70
27376;DHT22;14844;51.302;6.354;2023-02-28T11:49:07;6.40;91.10
27376;DHT22;14844;51.302;6.354;2023-02-28T11:51:48;6.40;90.60
27376;DHT22;14844;51.302;6.354;2023-02-28T11:55:04;6.50;90.80
27376;DHT22;14844;51.302;6.354;2023-02-28T11:57:27;6.60;91.40
27376;DHT22;14844;51.302;6.354;2023-02-28T12:00:03;6.50;91.30
27376;DHT22;14844;51.302;6.354;2023-02-28T12:06:17;7.00;90.70
27376;DHT22;14844;51.302;6.354;2023-02-28T12:11:51;7.70;90.80
27376;DHT22;14844;51.302;6.354;2023-02-28T12:17:40;8.40;91.20
27376;DHT22;14844;51.302;6.354;2023-02-28T12:20:35;8.10;88.30
27376;DHT22;14844;51.302;6.354;2023-02-28T12:28:40;7.10;90.80
27376;DHT22;14844;51.302;6.354;2023-02-28T12:31:18;7.00;90.10
27376;DHT22;14844;51.302;6.354;2023-02-28T12:33:48;6.70;90.20
27376;DHT22;14844;51.302;6.354;2023-02-28T12:36:18;6.70;90.50
27376;DHT22;14844;51.302;6.354;2023-02-28T12:39:03;6.50;90.60
27376;DHT22;14844;51.302;6.354;2023-02-28T12:44:34;6.60;91.20
27376;DHT22;14844;51.302;6.354;2023-02-28T12:47:03;6.50;90.40
27376;DHT22;14844;51.302;6.354;2023-02-28T12:49:56;6.60;90.70
27376;DHT22;14844;51.302;6.354;2023-02-28T12:52:31;6.70;91.30
27376;DHT22;14844;51.302;6.354;2023-02-28T12:55:10;6.90;90.80
27376;DHT22;14844;51.302;6.354;2023-02-28T12:57:50;6.80;90.80
27376;DHT22;14844;51.302;6.354;2023-02-28T13:00:22;6.80;90.60
27376;DHT22;14844;51.302;6.354;2023-02-28T13:11:06;6.60;90.90
27376;DHT22;14844;51.302;6.354;2023-02-28T13:13:32;6.50;90.70
27376;DHT22;14844;51.302;6.354;2023-02-28T13:16:02;6.50;90.40
27376;DHT22;14844;51.302;6.354;2023-02-28T13:18:40;6.40;90.30
27376;DHT22;14844;51.302;6.354;2023-02-28T13:21:28;6.40;90.20
27376;DHT22;14844;51.302;6.354;2023-02-28T13:24:00;6.40;90.60
27376;DHT22;14844;51.302;6.354;2023-02-28T13:29:27;6.50;89.80
27376;DHT22;14844;51.302;6.354;2023-02-28T13:47:39;6.30;90.60
27376;DHT22;14844;51.302;6.354;2023-02-28T13:56:18;6.20;89.90
27376;DHT22;14844;51.302;6.354;2023-02-28T13:58:55;6.40;90.90
27376;DHT22;14844;51.302;6.354;2023-02-28T14:01:48;6.50;90.80
27376;DHT22;14844;51.302;6.354;2023-02-28T14:07:07;6.40;90.60
27376;DHT22;14844;51.302;6.354;2023-02-28T14:09:39;6.40;91.00
27376;DHT22;14844;51.302;6.354;2023-02-28T14:18:24;6.40;90.70
27376;DHT22;14844;51.302;6.354;2023-02-28T14:20:55;6.30;90.40
27376;DHT22;14844;51.302;6.354;2023-02-28T14:26:05;6.20;90.60
27376;DHT22;14844;51.302;6.354;2023-02-28T14:31:34;6.10;91.00
27376;DHT22;14844;51.302;6.354;2023-02-28T14:36:44;6.30;91.30
27376;DHT22;14844;51.302;6.354;2023-02-28T14:39:20;6.50;91.70
27376;DHT22;14844;51.302;6.354;2023-02-28T14:41:47;6.60;92.00
27376;DHT22;14844;51.302;6.354;2023-02-28T14:44:16;6.50;92.10
27376;DHT22;14844;51.302;6.354;2023-02-28T14:46:42;6.30;91.20
27376;DHT22;14844;51.302;6.354;2023-02-28T14:49:36;6.20;91.30
27376;DHT22;14844;51.302;6.354;2023-02-28T14:52:19;6.20;91.50
27376;DHT22;14844;51.302;6.354;2023-02-28T14:54:46;6.20;91.30
27376;DHT22;14844;51.302;6.354;2023-02-28T14:57:25;6.20;91.30
27376;DHT22;14844;51.302;6.354;2023-02-28T15:02:43;6.10;92.00
27376;DHT22;14844;51.302;6.354;2023-02-28T15:07:37;6.20;92.00
27376;DHT22;14844;51.302;6.354;2023-02-28T15:10:24;6.10;92.00
27376;DHT22;14844;51.302;6.354;2023-02-28T15:15:52;6.10;92.40
27376;DHT22;14844;51.302;6.354;2023-02-28T15:20:51;6.10;93.50
27376;DHT22;14844;51.302;6.354;2023-02-28T15:23:18;6.10;93.70
27376;DHT22;14844;51.302;6.354;2023-02-28T15:25:44;6.10;93.90
27376;DHT22;14844;51.302;6.354;2023-02-28T15:28:17;6.10;93.80
27376;DHT22;14844;51.302;6.354;2023-02-28T15:31:00;6.00;93.60
27376;DHT22;14844;51.302;6.354;2023-02-28T15:33:32;5.90;93.40
27376;DHT22;14844;51.302;6.354;2023-02-28T15:36:28;5.90;93.80
27376;DHT22;14844;51.302;6.354;2023-02-28T15:38:54;5.80;93.70
27376;DHT22;14844;51.302;6.354;2023-02-28T15:41:35;5.70;94.10
27376;DHT22;14844;51.302;6.354;2023-02-28T15:47:17;5.60;94.20
27376;DHT22;14844;51.302;6.354;2023-02-28T15:49:53;5.60;94.10
27376;DHT22;14844;51.302;6.354;2023-02-28T15:52:44;5.50;94.40
27376;DHT22;14844;51.302;6.354;2023-02-28T15:55:18;5.50;94.50
27376;DHT22;14844;51.302;6.354;2023-02-28T15:57:45;5.50;94.50
27376;DHT22;14844;51.302;6.354;2023-02-28T16:00:14;5.70;94.80
27376;DHT22;14844;51.302;6.354;2023-02-28T16:02:41;5.80;94.60
27376;DHT22;14844;51.302;6.354;2023-02-28T16:07:39;6.10;94.20
27376;DHT22;14844;51.302;6.354;2023-02-28T16:10:06;6.30;94.50
27376;DHT22;14844;51.302;6.354;2023-02-28T16:12:35;6.50;94.60
27376;DHT22;14844;51.302;6.354;2023-02-28T16:15:45;6.50;94.30
27376;DHT22;14844;51.302;6.354;2023-02-28T16:17:53;6.50;94.30
27376;DHT22;14844;51.302;6.354;2023-02-28T16:20:21;6.40;95.00
27376;DHT22;14844;51.302;6.354;2023-02-28T16:22:47;6.50;95.10
27376;DHT22;14844;51.302;6.354;2023-02-28T16:25:18;6.50;94.50
27376;DHT22;14844;51.302;6.354;2023-02-28T16:27:45;6.50;93.90
27376;DHT22;14844;51.302;6.354;2023-02-28T16:30:21;6.40;94.20
27376;DHT22;14844;51.302;6.354;2023-02-28T16:32:48;6.30;94.40
27376;DHT22;14844;51.302;6.354;2023-02-28T16:35:14;6.20;94.10
27376;DHT22;14844;51.302;6.354;2023-02-28T16:37:40;6.10;94.40
27376;DHT22;14844;51.302;6.354;2023-02-28T16:40:08;6.20;94.60
27376;DHT22;14844;51.302;6.354;2023-02-28T16:42:34;6.20;94.80
27376;DHT22;14844;51.302;6.354;2023-02-28T16:45:00;6.10;95.10
27376;DHT22;14844;51.302;6.354;2023-02-28T16:47:30;6.10;95.40
27376;DHT22;14844;51.302;6.354;2023-02-28T16:49:58;6.10;95.40
27376;DHT22;14844;51.302;6.354;2023-02-28T16:52:24;5.90;95.60
27376;DHT22;14844;51.302;6.354;2023-02-28T16:54:49;5.70;96.10
27376;DHT22;14844;51.302;6.354;2023-02-28T16:57:20;5.40;96.50
27376;DHT22;14844;51.302;6.354;2023-02-28T16:59:47;5.00;96.70
27376;DHT22;14844;51.302;6.354;2023-02-28T17:02:15;4.70;97.40
27376;DHT22;14844;51.302;6.354;2023-02-28T17:04:42;4.50;97.90
27376;DHT22;14844;51.302;6.354;2023-02-28T17:07:12;4.30;98.20
27376;DHT22;14844;51.302;6.354;2023-02-28T17:09:38;4.10;98.40
27376;DHT22;14844;51.302;6.354;2023-02-28T17:12:04;4.00;98.40
27376;DHT22;14844;51.302;6.354;2023-02-28T17:14:30;3.90;98.70
27376;DHT22;14844;51.302;6.354;2023-02-28T17:16:56;3.80;98.90
27376;DHT22;14844;51.302;6.354;2023-02-28T17:19:21;3.70;99.00
27376;DHT22;14844;51.302;6.354;2023-02-28T17:21:47;3.60;99.20
27376;DHT22;14844;51.302;6.354;2023-02-28T17:24:12;3.60;99.30
27376;DHT22;14844;51.302;6.354;2023-02-28T17:26:42;3.50;99.50
27376;DHT22;14844;51.302;6.354;2023-02-28T17:29:16;3.40;99.80
27376;DHT22;14844;51.302;6.354;2023-02-28T17:31:42;3.30;99.90
27376;DHT22;14844;51.302;6.354;2023-02-28T17:34:08;3.30;99.90
27376;DHT22;14844;51.302;6.354;2023-02-28T17:36:34;3.20;99.90
27376;DHT22;14844;51.302;6.354;2023-02-28T17:39:01;3.20;99.90
27376;DHT22;14844;51.302;6.354;2023-02-28T17:41:26;3.20;99.90
27376;DHT22;14844;51.302;6.354;2023-02-28T17:43:52;3.10;99.90
27376;DHT22;14844;51.302;6.354;2023-02-28T17:46:20;3.10;99.90
27376;DHT22;14844;51.302;6.354;2023-02-28T17:48:50;3.10;99.90
27376;DHT22;14844;51.302;6.354;2023-02-28T17:51:17;3.00;99.90
27376;DHT22;14844;51.302;6.354;2023-02-28T17:53:43;2.90;99.90
27376;DHT22;14844;51.302;6.354;2023-02-28T17:56:14;2.90;99.90
27376;DHT22;14844;51.302;6.354;2023-02-28T17:58:40;2.80;99.90
27376;DHT22;14844;51.302;6.354;2023-02-28T18:01:06;2.80;99.90
27376;DHT22;14844;51.302;6.354;2023-02-28T18:03:32;2.70;99.90
27376;DHT22;14844;51.302;6.354;2023-02-28T18:05:58;2.70;99.90
27376;DHT22;14844;51.302;6.354;2023-02-28T18:08:23;2.60;99.90
27376;DHT22;14844;51.302;6.354;2023-02-28T18:10:49;2.50;99.90
27376;DHT22;14844;51.302;6.354;2023-02-28T18:13:15;2.40;99.90
27376;DHT22;14844;51.302;6.354;2023-02-28T18:15:40;2.40;99.90
27376;DHT22;14844;51.302;6.354;2023-02-28T18:18:06;2.40;99.90
27376;DHT22;14844;51.302;6.354;2023-02-28T18:20:33;2.30;99.90